• Join FlightAware (Why Join?)
  • Login
  • US Flag 
12:23PM EDT


 

Airport Tracker/Info


-or-


 

Live Flight TrackerFlight Track Log ✈ UJC7 ✈ 01-May-2012 ✈ KMBS - KCKV

Flight Track Log - Related Links

Times and Time Zones

All times are in EDT time to prevent confusion due to time zone crossing. See the UJC7 flight status page for this flight to view local times or setup timezone preferences in your user account.

Time Position Orientation Groundspeed Altitude Reporting Facility
EDT Latitude Longitude Course Direction KTS MPH feet Rate Location/Type
10:04AM 43.5137 -84.0682 170° South  Level FlightAware Approximate
10:05AM 43.4278 -84.1148 83° East  Level FlightAware Approximate
10:06AM 43.4336 -84.0483 200° South 277 319 7,400  Level Cleveland Center
10:07AM 43.3639 -84.0842 201° Southwest 282 325 10,200 2,700 Climbing Cleveland Center
10:08AM 43.2853 -84.1256 201° Southwest 282 325 12,800 2,400 Climbing Cleveland Center
10:09AM 43.2133 -84.1642 202° Southwest 276 318 15,000 2,100 Climbing Cleveland Center
10:10AM 43.1347 -84.2081 200° South 290 334 17,000 1,800 Climbing Cleveland Center
10:11AM 43.0544 -84.2486 201° Southwest 304 350 18,700 1,680 Climbing Cleveland Center
10:12AM 42.9758 -84.2894 202° Southwest 310 357 20,400 1,620 Climbing Cleveland Center
10:13AM 42.8953 -84.3328 201° Southwest 316 364 22,000 1,500 Climbing Cleveland Center
10:14AM 42.8211 -84.3708 201° Southwest 316 364 23,400 1,440 Climbing Cleveland Center
10:15AM 42.7403 -84.4142 201° Southwest 315 362 24,900 1,500 Climbing Cleveland Center
10:16AM 42.6469 -84.4619 202° Southwest 315 362 26,500 1,440 Climbing Cleveland Center
10:17AM 42.5622 -84.5075 201° Southwest 320 368 27,800 1,200 Climbing Cleveland Center
10:18AM 42.4836 -84.5478 200° South 314 361 29,000 1,080 Climbing Cleveland Center
10:19AM 42.4008 -84.5875 202° Southwest 314 361 30,000 360 Climbing Cleveland Center
10:21AM 42.2694 -84.6603 200° South 300 345 30,000  Level Chicago Center
10:22AM 42.1775 -84.7064 200° South 334 384 30,000  Level Chicago Center
10:23AM 42.0792 -84.7556 202° Southwest 361 415 30,000  Level Chicago Center
10:24AM 41.9772 -84.8103 201° Southwest 371 427 30,000  Level Chicago Center
10:25AM 41.8792 -84.8619 201° Southwest 371 427 30,000  Level Chicago Center
10:26AM 41.7831 -84.9106 201° Southwest 377 434 30,000  Level Chicago Center
10:27AM 41.6847 -84.9619 201° Southwest 382 440 30,000  Level Chicago Center
10:28AM 41.5847 -85.0131 202° Southwest 382 440 30,000  Level Chicago Center
10:29AM 41.5008 -85.0575 200° South 382 440 30,000  Level Chicago Center
10:30AM 41.4086 -85.1025 204° Southwest 376 433 30,000 -60 Level Chicago Center
10:31AM 41.3106 -85.1614 198° South 371 427 29,900  Descending Chicago Center
10:32AM 41.2203 -85.2003 201° Southwest 365 420 30,000  Climbing Chicago Center
10:33AM 41.1181 -85.2536 201° Southwest 365 420 30,000  Level Chicago Center
10:34AM 41.0258 -85.3008 199° South 365 420 30,000  Level Chicago Center
10:35AM 40.9294 -85.3453 201° Southwest 365 420 30,000  Level Chicago Center
10:36AM 40.8350 -85.3922 200° South 365 420 30,000  Level Chicago Center
10:38AM 40.6228 -85.4958 201° Southwest 373 429 30,000  Level Indianapolis Center
10:39AM 40.5261 -85.5450 202° Southwest 373 429 30,000  Level Indianapolis Center
10:40AM 40.4317 -85.5939 199° South 373 429 30,000  Level Indianapolis Center
10:41AM 40.3264 -85.6425 200° South 373 429 30,000  Level Indianapolis Center
10:42AM 40.2319 -85.6886 200° South 373 429 30,000  Level Indianapolis Center
10:43AM 40.1353 -85.7347 201° Southwest 373 429 30,000  Level Indianapolis Center
10:44AM 40.0425 -85.7806 201° Southwest 373 429 30,000  Level Indianapolis Center
10:45AM 39.9458 -85.8289 199° South 373 429 30,000  Level Indianapolis Center
10:46AM 39.8511 -85.8719 200° South 373 429 30,000  Level Indianapolis Center
10:47AM 39.7564 -85.9175 200° South 373 429 30,000  Level Indianapolis Center
10:48AM 39.6703 -85.9578 201° Southwest 373 429 30,000  Level Indianapolis Center
10:49AM 39.5753 -86.0056 202° Southwest 373 429 30,000  Level Indianapolis Center
10:50AM 39.4825 -86.0536 200° South 373 429 30,000  Level Indianapolis Center
10:51AM 39.3858 -86.0983 202° Southwest 373 429 30,000  Level Indianapolis Center
10:52AM 39.2825 -86.1511 200° South 373 429 30,000  Level Indianapolis Center
10:53AM 39.1875 -86.1958 202° Southwest 373 429 30,000  Level Indianapolis Center
10:54AM 39.0947 -86.2433 200° South 373 429 30,000  Level Indianapolis Center
10:55AM 39.0042 -86.2853 203° Southwest 358 412 30,000  Level Indianapolis Center
10:56AM 38.9153 -86.3328 200° South 352 405 30,000  Level Indianapolis Center
10:57AM 38.8267 -86.3747 202° Southwest 352 405 30,000  Level Indianapolis Center
10:58AM 38.7297 -86.4242 200° South 357 411 30,000  Level Indianapolis Center
10:59AM 38.6347 -86.4683 201° Southwest 363 418 30,000  Level Indianapolis Center
11:00AM 38.5397 -86.5147 200° South 363 418 30,000  Level Indianapolis Center
11:01AM 38.4447 -86.5586 200° South 368 423 30,000  Level Indianapolis Center
11:02AM 38.3497 -86.6025 201° Southwest 368 423 30,000  Level Indianapolis Center
11:03AM 38.2547 -86.6489 201° Southwest 368 423 30,000  Level Indianapolis Center
11:04AM 38.1594 -86.6950 200° South 373 429 30,000  Level Indianapolis Center
11:05AM 38.0625 -86.7408 201° Southwest 373 429 30,000  Level Indianapolis Center
11:06AM 37.9758 -86.7819 201° Southwest 373 429 30,000 -600 Level Indianapolis Center
11:07AM 37.8764 -86.8303 201° Southwest 373 429 28,800 -1,500 Descending Indianapolis Center
11:08AM 37.7811 -86.8761 200° South 373 429 27,000 -1,920 Descending Indianapolis Center
11:09AM 37.6881 -86.9192 201° Southwest 373 429 25,000 -1,920 Descending Indianapolis Center
11:10AM 37.5931 -86.9647 201° Southwest 368 423 23,200 -1,980 Descending Indianapolis Center
11:11AM 37.4581 -87.0311 199° South 353 406 20,400 -2,100 Descending Memphis Center
11:12AM 37.3675 -87.0714 199° South 362 417 18,400 -2,040 Descending Memphis Center
11:13AM 37.2747 -87.1117 201° Southwest 362 417 16,400 -2,220 Descending Memphis Center
11:14AM 37.1906 -87.1517 200° South 346 398 14,000 -2,340 Descending Memphis Center
11:15AM 37.1164 -87.1858 201° Southwest 330 380 11,800 -2,280 Descending Memphis Center
11:16AM 37.0381 -87.2228 201° Southwest 309 356 9,500 -2,280 Descending Memphis Center
11:17AM 36.9536 -87.2625 200° South 253 291 6,800 -2,220 Descending Memphis Center
11:18AM 36.8856 -87.2936 203° Southwest 251 289 4,700 -2,040 Descending Memphis Center
11:19AM 36.8219 -87.3272 196° South 250 288 2,800 -1,260 Descending Memphis Center
11:20AM 36.7806 -87.3417 220° Southwest 245 282 2,500 -240 Descending Memphis Center
11:21AM 36.7378 -87.3872 209° Southwest 217 250 2,400 -420 Descending Memphis Center
11:22AM 36.6989 -87.4144 194° South 185 213 1,700 -660 Descending Memphis Center
11:23AM 36.6617 -87.4264 188° South 146 168 1,100 -480 Descending Memphis Center
11:24AM 36.6264 -87.4328 188° South 133 153 800 -300 Descending Memphis Center